sensor_id;sensor_type;location;lat;lon;timestamp;pressure;altitude;pressure_sealevel;temperature;humidity
31681;BME280;18281;51.364;9.566;2023-01-29T00:01:36;101357.97;;;-5.29;100.00
31681;BME280;18281;51.364;9.566;2023-01-29T00:04:01;101353.69;;;-5.28;100.00
31681;BME280;18281;51.364;9.566;2023-01-29T00:06:26;101352.88;;;-5.27;100.00
31681;BME280;18281;51.364;9.566;2023-01-29T00:08:52;101345.16;;;-5.29;100.00
31681;BME280;18281;51.364;9.566;2023-01-29T00:11:17;101345.19;;;-5.27;100.00
31681;BME280;18281;51.364;9.566;2023-01-29T00:13:44;101346.03;;;-5.28;100.00
31681;BME280;18281;51.364;9.566;2023-01-29T00:16:09;101348.56;;;-5.28;100.00
31681;BME280;18281;51.364;9.566;2023-01-29T00:18:39;101340.09;;;-5.27;100.00
31681;BME280;18281;51.364;9.566;2023-01-29T00:21:10;101325.66;;;-5.25;100.00
31681;BME280;18281;51.364;9.566;2023-01-29T00:23:36;101331.59;;;-5.26;100.00
31681;BME280;18281;51.364;9.566;2023-01-29T00:26:01;101326.47;;;-5.26;100.00
31681;BME280;18281;51.364;9.566;2023-01-29T00:28:26;101326.47;;;-5.26;100.00
31681;BME280;18281;51.364;9.566;2023-01-29T00:30:52;101323.94;;;-5.25;100.00
31681;BME280;18281;51.364;9.566;2023-01-29T00:33:17;101320.53;;;-5.25;100.00
31681;BME280;18281;51.364;9.566;2023-01-29T00:35:42;101313.72;;;-5.25;100.00
31681;BME280;18281;51.364;9.566;2023-01-29T00:38:08;101313.66;;;-5.26;100.00
31681;BME280;18281;51.364;9.566;2023-01-29T00:40:36;101298.34;;;-5.25;100.00
31681;BME280;18281;51.364;9.566;2023-01-29T00:43:22;101300.94;;;-5.23;100.00
31681;BME280;18281;51.364;9.566;2023-01-29T00:46:06;101306.13;;;-5.22;100.00
31681;BME280;18281;51.364;9.566;2023-01-29T00:48:32;101308.69;;;-5.22;100.00
31681;BME280;18281;51.364;9.566;2023-01-29T00:50:58;101307.75;;;-5.25;100.00
31681;BME280;18281;51.364;9.566;2023-01-29T00:53:23;101308.59;;;-5.25;100.00
31681;BME280;18281;51.364;9.566;2023-01-29T00:55:49;101300.94;;;-5.23;100.00
31681;BME280;18281;51.364;9.566;2023-01-29T00:58:14;101306.06;;;-5.23;100.00
31681;BME280;18281;51.364;9.566;2023-01-29T01:00:47;101301.00;;;-5.22;100.00
31681;BME280;18281;51.364;9.566;2023-01-29T01:03:13;101291.59;;;-5.23;100.00
31681;BME280;18281;51.364;9.566;2023-01-29T01:05:39;101286.47;;;-5.23;100.00
31681;BME280;18281;51.364;9.566;2023-01-29T01:08:04;101285.59;;;-5.23;100.00
31681;BME280;18281;51.364;9.566;2023-01-29T01:11:04;101294.16;;;-5.23;100.00
31681;BME280;18281;51.364;9.566;2023-01-29T01:13:31;101293.31;;;-5.22;100.00
31681;BME280;18281;51.364;9.566;2023-01-29T01:15:57;101299.31;;;-5.21;100.00
31681;BME280;18281;51.364;9.566;2023-01-29T01:18:22;101297.63;;;-5.21;100.00
31681;BME280;18281;51.364;9.566;2023-01-29T01:20:48;101314.03;;;-5.14;100.00
31681;BME280;18281;51.364;9.566;2023-01-29T01:23:19;101301.03;;;-5.20;100.00
31681;BME280;18281;51.364;9.566;2023-01-29T01:25:44;101303.56;;;-5.22;100.00
31681;BME280;18281;51.364;9.566;2023-01-29T01:28:11;101306.16;;;-5.20;100.00
31681;BME280;18281;51.364;9.566;2023-01-29T01:30:36;101304.47;;;-5.20;100.00
31681;BME280;18281;51.364;9.566;2023-01-29T01:33:02;101306.88;;;-5.24;100.00
31681;BME280;18281;51.364;9.566;2023-01-29T01:35:27;101300.94;;;-5.23;100.00
31681;BME280;18281;51.364;9.566;2023-01-29T01:37:53;101303.47;;;-5.25;100.00
31681;BME280;18281;51.364;9.566;2023-01-29T01:40:20;101313.75;;;-5.23;100.00
31681;BME280;18281;51.364;9.566;2023-01-29T01:42:50;101314.63;;;-5.23;100.00
31681;BME280;18281;51.364;9.566;2023-01-29T01:45:36;101306.13;;;-5.22;100.00
31681;BME280;18281;51.364;9.566;2023-01-29T01:48:12;101307.84;;;-5.21;100.00
31681;BME280;18281;51.364;9.566;2023-01-29T01:50:44;101307.78;;;-5.24;100.00
31681;BME280;18281;51.364;9.566;2023-01-29T01:53:18;101295.91;;;-5.20;100.00
31681;BME280;18281;51.364;9.566;2023-01-29T01:55:57;101303.56;;;-5.22;100.00
31681;BME280;18281;51.364;9.566;2023-01-29T01:58:32;101306.13;;;-5.22;100.00
31681;BME280;18281;51.364;9.566;2023-01-29T02:00:58;101306.97;;;-5.23;100.00
31681;BME280;18281;51.364;9.566;2023-01-29T02:03:26;101312.09;;;-5.23;100.00
31681;BME280;18281;51.364;9.566;2023-01-29T02:06:11;101305.16;;;-5.25;100.00
31681;BME280;18281;51.364;9.566;2023-01-29T02:08:59;101293.16;;;-5.28;100.00
31681;BME280;18281;51.364;9.566;2023-01-29T02:11:44;101285.50;;;-5.26;100.00
31681;BME280;18281;51.364;9.566;2023-01-29T02:14:10;101274.44;;;-5.25;100.00
31681;BME280;18281;51.364;9.566;2023-01-29T02:16:36;101275.34;;;-5.23;100.00
31681;BME280;18281;51.364;9.566;2023-01-29T02:19:04;101264.34;;;-5.21;100.00
31681;BME280;18281;51.364;9.566;2023-01-29T02:22:11;101261.72;;;-5.22;100.00
31681;BME280;18281;51.364;9.566;2023-01-29T02:25:01;101259.22;;;-5.21;100.00
31681;BME280;18281;51.364;9.566;2023-01-29T02:28:00;101259.22;;;-5.21;100.00
31681;BME280;18281;51.364;9.566;2023-01-29T02:30:35;101270.22;;;-5.23;100.00
31681;BME280;18281;51.364;9.566;2023-01-29T02:44:32;101260.06;;;-5.20;100.00
31681;BME280;18281;51.364;9.566;2023-01-29T02:47:00;101254.94;;;-5.20;100.00
31681;BME280;18281;51.364;9.566;2023-01-29T02:49:42;101252.34;;;-5.22;100.00
31681;BME280;18281;51.364;9.566;2023-01-29T02:54:44;101268.78;;;-5.13;100.00
31681;BME280;18281;51.364;9.566;2023-01-29T02:57:32;101266.94;;;-5.19;100.00
31681;BME280;18281;51.364;9.566;2023-01-29T03:00:06;101281.56;;;-5.15;100.00
31681;BME280;18281;51.364;9.566;2023-01-29T03:02:40;101272.06;;;-5.19;100.00
31681;BME280;18281;51.364;9.566;2023-01-29T03:05:11;101279.00;;;-5.15;100.00
31681;BME280;18281;51.364;9.566;2023-01-29T03:07:44;101283.25;;;-5.15;100.00
31681;BME280;18281;51.364;9.566;2023-01-29T03:12:43;101278.97;;;-5.17;100.00
31681;BME280;18281;51.364;9.566;2023-01-29T03:15:17;101280.72;;;-5.15;100.00
31681;BME280;18281;51.364;9.566;2023-01-29T03:18:17;101291.97;;;-5.10;100.00
31681;BME280;18281;51.364;9.566;2023-01-29T03:20:51;101288.50;;;-5.11;100.00
31681;BME280;18281;51.364;9.566;2023-01-29T03:23:20;101275.66;;;-5.12;100.00
31681;BME280;18281;51.364;9.566;2023-01-29T03:26:07;101267.09;;;-5.14;100.00
31681;BME280;18281;51.364;9.566;2023-01-29T03:28:51;101268.75;;;-5.15;100.00
31681;BME280;18281;51.364;9.566;2023-01-29T03:31:36;101267.13;;;-5.13;100.00
31681;BME280;18281;51.364;9.566;2023-01-29T03:34:22;101266.19;;;-5.15;100.00
31681;BME280;18281;51.364;9.566;2023-01-29T03:37:04;101280.72;;;-5.15;100.00
31681;BME280;18281;51.364;9.566;2023-01-29T03:39:31;101286.72;;;-5.13;100.00
31681;BME280;18281;51.364;9.566;2023-01-29T03:42:26;101283.25;;;-5.15;100.00
31681;BME280;18281;51.364;9.566;2023-01-29T03:46:06;101294.25;;;-5.20;100.00
31681;BME280;18281;51.364;9.566;2023-01-29T03:48:08;101289.19;;;-5.17;100.00
31681;BME280;18281;51.364;9.566;2023-01-29T03:51:16;101288.19;;;-5.22;100.00
31681;BME280;18281;51.364;9.566;2023-01-29T03:56:31;101288.19;;;-5.22;100.00
31681;BME280;18281;51.364;9.566;2023-01-29T04:01:29;101277.91;;;-5.23;100.00
31681;BME280;18281;51.364;9.566;2023-01-29T04:04:00;101281.25;;;-5.26;100.00
31681;BME280;18281;51.364;9.566;2023-01-29T04:06:31;101277.94;;;-5.22;100.00
31681;BME280;18281;51.364;9.566;2023-01-29T04:09:06;101273.56;;;-5.26;100.00
31681;BME280;18281;51.364;9.566;2023-01-29T04:11:37;101274.50;;;-5.24;100.00
31681;BME280;18281;51.364;9.566;2023-01-29T04:14:06;101269.19;;;-5.30;100.00
31681;BME280;18281;51.364;9.566;2023-01-29T04:16:36;101270.88;;;-5.30;100.00
31681;BME280;18281;51.364;9.566;2023-01-29T04:19:04;101265.81;;;-5.29;100.00
31681;BME280;18281;51.364;9.566;2023-01-29T04:21:29;101269.19;;;-5.30;100.00
31681;BME280;18281;51.364;9.566;2023-01-29T04:23:56;101267.53;;;-5.28;100.00
31681;BME280;18281;51.364;9.566;2023-01-29T04:35:56;101245.38;;;-5.27;100.00
31681;BME280;18281;51.364;9.566;2023-01-29T04:38:15;101238.59;;;-5.25;100.00
31681;BME280;18281;51.364;9.566;2023-01-29T04:40:50;101234.38;;;-5.23;100.00
31681;BME280;18281;51.364;9.566;2023-01-29T04:43:25;101241.28;;;-5.21;100.00
31681;BME280;18281;51.364;9.566;2023-01-29T04:45:58;101245.41;;;-5.26;100.00
31681;BME280;18281;51.364;9.566;2023-01-29T04:51:54;101257.38;;;-5.25;100.00
31681;BME280;18281;51.364;9.566;2023-01-29T04:55:16;101241.09;;;-5.27;100.00
31681;BME280;18281;51.364;9.566;2023-01-29T04:57:34;101228.28;;;-5.27;100.00
31681;BME280;18281;51.364;9.566;2023-01-29T05:00:20;101229.16;;;-5.28;100.00
31681;BME280;18281;51.364;9.566;2023-01-29T05:02:48;101222.47;;;-5.23;100.00
31681;BME280;18281;51.364;9.566;2023-01-29T05:05:15;101226.66;;;-5.25;100.00
31681;BME280;18281;51.364;9.566;2023-01-29T05:07:44;101209.56;;;-5.26;100.00
31681;BME280;18281;51.364;9.566;2023-01-29T05:10:12;101205.38;;;-5.24;100.00
31681;BME280;18281;51.364;9.566;2023-01-29T05:12:40;101209.72;;;-5.21;100.00
31681;BME280;18281;51.364;9.566;2023-01-29T05:15:11;101217.34;;;-5.23;100.00
31681;BME280;18281;51.364;9.566;2023-01-29T05:17:38;101213.13;;;-5.21;100.00
31681;BME280;18281;51.364;9.566;2023-01-29T05:20:04;101210.59;;;-5.19;100.00
31681;BME280;18281;51.364;9.566;2023-01-29T05:22:30;101201.25;;;-5.19;100.00
31681;BME280;18281;51.364;9.566;2023-01-29T05:24:55;101186.72;;;-5.20;100.00
31681;BME280;18281;51.364;9.566;2023-01-29T05:27:30;101187.44;;;-5.24;100.00
31681;BME280;18281;51.364;9.566;2023-01-29T05:30:17;101185.63;;;-5.28;100.00
31681;BME280;18281;51.364;9.566;2023-01-29T05:32:43;101180.66;;;-5.22;100.00
31681;BME280;18281;51.364;9.566;2023-01-29T05:35:08;101171.38;;;-5.18;100.00
31681;BME280;18281;51.364;9.566;2023-01-29T05:37:33;101180.31;;;-5.34;100.00
31681;BME280;18281;51.364;9.566;2023-01-29T05:39:58;101178.06;;;-5.23;100.00
31681;BME280;18281;51.364;9.566;2023-01-29T05:42:24;101172.19;;;-5.19;100.00
31681;BME280;18281;51.364;9.566;2023-01-29T05:44:49;101169.56;;;-5.22;100.00
31681;BME280;18281;51.364;9.566;2023-01-29T05:47:19;101170.69;;;-5.12;100.00
31681;BME280;18281;51.364;9.566;2023-01-29T05:49:44;101172.19;;;-5.19;100.00
31681;BME280;18281;51.364;9.566;2023-01-29T05:52:09;101179.09;;;-5.17;100.00
31681;BME280;18281;51.364;9.566;2023-01-29T05:54:35;101190.34;;;-5.11;100.00
31681;BME280;18281;51.364;9.566;2023-01-29T05:57:00;101197.28;;;-5.07;100.00
31681;BME280;18281;51.364;9.566;2023-01-29T05:59:25;101208.34;;;-5.08;100.00
31681;BME280;18281;51.364;9.566;2023-01-29T06:01:51;101208.44;;;-5.05;100.00
31681;BME280;18281;51.364;9.566;2023-01-29T06:04:16;101229.03;;;-5.02;100.00
31681;BME280;18281;51.364;9.566;2023-01-29T06:06:41;101233.34;;;-4.99;100.00
31681;BME280;18281;51.364;9.566;2023-01-29T06:09:09;101230.03;;;-4.97;100.00
31681;BME280;18281;51.364;9.566;2023-01-29T06:11:35;101221.44;;;-4.97;100.00
31681;BME280;18281;51.364;9.566;2023-01-29T06:14:00;101219.50;;;-5.06;100.00
31681;BME280;18281;51.364;9.566;2023-01-29T06:16:25;101227.00;;;-5.12;100.00
31681;BME280;18281;51.364;9.566;2023-01-29T06:18:51;101222.06;;;-5.06;100.00
31681;BME280;18281;51.364;9.566;2023-01-29T06:21:16;101232.25;;;-5.09;100.00
31681;BME280;18281;51.364;9.566;2023-01-29T06:23:41;101234.81;;;-5.09;100.00
31681;BME280;18281;51.364;9.566;2023-01-29T06:26:11;101232.25;;;-5.09;100.00
31681;BME280;18281;51.364;9.566;2023-01-29T06:28:37;101237.63;;;-5.00;100.00
31681;BME280;18281;51.364;9.566;2023-01-29T06:31:03;101238.13;;;-5.12;100.00
31681;BME280;18281;51.364;9.566;2023-01-29T06:33:29;101230.38;;;-5.13;100.00
31681;BME280;18281;51.364;9.566;2023-01-29T06:35:56;101230.66;;;-5.04;100.00
31681;BME280;18281;51.364;9.566;2023-01-29T06:38:22;101229.03;;;-5.02;100.00
31681;BME280;18281;51.364;9.566;2023-01-29T06:40:48;101244.31;;;-5.05;100.00
31681;BME280;18281;51.364;9.566;2023-01-29T06:43:13;101255.44;;;-5.03;100.00
31681;BME280;18281;51.364;9.566;2023-01-29T06:45:46;101255.69;;;-4.95;100.00
31681;BME280;18281;51.364;9.566;2023-01-29T06:48:11;101253.84;;;-4.99;100.00
31681;BME280;18281;51.364;9.566;2023-01-29T06:50:36;101258.97;;;-4.99;100.00
31681;BME280;18281;51.364;9.566;2023-01-29T06:53:02;101263.25;;;-5.00;100.00
31681;BME280;18281;51.364;9.566;2023-01-29T06:55:27;101270.00;;;-4.72;100.00
31681;BME280;18281;51.364;9.566;2023-01-29T06:57:52;101271.22;;;-3.16;100.00
31681;BME280;18281;51.364;9.566;2023-01-29T07:00:18;101269.56;;;-2.72;100.00
31681;BME280;18281;51.364;9.566;2023-01-29T07:02:48;101276.47;;;-3.12;100.00
31681;BME280;18281;51.364;9.566;2023-01-29T07:05:13;101282.72;;;-3.39;100.00
31681;BME280;18281;51.364;9.566;2023-01-29T07:07:38;101288.81;;;-3.71;100.00
31681;BME280;18281;51.364;9.566;2023-01-29T07:10:04;101302.00;;;-3.92;100.00
31681;BME280;18281;51.364;9.566;2023-01-29T07:12:29;101305.25;;;-3.99;100.00
31681;BME280;18281;51.364;9.566;2023-01-29T07:14:55;101278.31;;;-4.17;100.00
31681;BME280;18281;51.364;9.566;2023-01-29T07:17:20;101268.66;;;-4.25;100.00
31681;BME280;18281;51.364;9.566;2023-01-29T07:19:45;101259.84;;;-4.37;100.00
31681;BME280;18281;51.364;9.566;2023-01-29T07:22:10;101236.44;;;-4.49;100.00
31681;BME280;18281;51.364;9.566;2023-01-29T07:24:36;101235.47;;;-4.53;100.00
31681;BME280;18281;51.364;9.566;2023-01-29T07:27:01;101236.09;;;-4.61;100.00
31681;BME280;18281;51.364;9.566;2023-01-29T07:29:26;101236.03;;;-4.64;100.00
31681;BME280;18281;51.364;9.566;2023-01-29T07:31:52;101253.06;;;-4.67;100.00
31681;BME280;18281;51.364;9.566;2023-01-29T07:34:17;101258.09;;;-4.70;100.00
31681;BME280;18281;51.364;9.566;2023-01-29T07:36:42;101240.84;;;-4.75;100.00
31681;BME280;18281;51.364;9.566;2023-01-29T07:39:07;101241.78;;;-4.73;100.00
31681;BME280;18281;51.364;9.566;2023-01-29T07:41:33;101248.50;;;-4.77;100.00
31681;BME280;18281;51.364;9.566;2023-01-29T07:43:58;101255.28;;;-4.79;100.00
31681;BME280;18281;51.364;9.566;2023-01-29T07:46:23;101251.84;;;-4.79;100.00
31681;BME280;18281;51.364;9.566;2023-01-29T07:48:49;101244.13;;;-4.81;100.00
31681;BME280;18281;51.364;9.566;2023-01-29T07:51:14;101224.94;;;-4.95;100.00
31681;BME280;18281;51.364;9.566;2023-01-29T07:53:41;101224.19;;;-4.91;100.00
31681;BME280;18281;51.364;9.566;2023-01-29T07:56:08;101243.97;;;-4.86;100.00
31681;BME280;18281;51.364;9.566;2023-01-29T07:58:33;101253.59;;;-4.78;100.00
31681;BME280;18281;51.364;9.566;2023-01-29T08:00:59;101250.88;;;-4.83;100.00
31681;BME280;18281;51.364;9.566;2023-01-29T08:03:24;101250.19;;;-4.77;100.00
31681;BME280;18281;51.364;9.566;2023-01-29T08:05:49;101248.28;;;-4.85;100.00
31681;BME280;18281;51.364;9.566;2023-01-29T08:08:15;101259.53;;;-4.79;100.00
31681;BME280;18281;51.364;9.566;2023-01-29T08:10:41;101267.94;;;-4.85;100.00
31681;BME280;18281;51.364;9.566;2023-01-29T08:13:06;101272.31;;;-4.81;100.00
31681;BME280;18281;51.364;9.566;2023-01-29T08:15:33;101260.28;;;-4.84;100.00
31681;BME280;18281;51.364;9.566;2023-01-29T08:18:00;101264.50;;;-4.84;100.00
31681;BME280;18281;51.364;9.566;2023-01-29T08:20:25;101266.88;;;-4.92;100.00
31681;BME280;18281;51.364;9.566;2023-01-29T08:23:04;101263.44;;;-4.92;100.00
31681;BME280;18281;51.364;9.566;2023-01-29T08:25:30;101264.28;;;-4.93;100.00
31681;BME280;18281;51.364;9.566;2023-01-29T08:27:57;101254.03;;;-4.93;100.00
31681;BME280;18281;51.364;9.566;2023-01-29T08:30:24;101254.16;;;-4.89;100.00
31681;BME280;18281;51.364;9.566;2023-01-29T08:32:50;101253.50;;;-4.81;100.00
31681;BME280;18281;51.364;9.566;2023-01-29T08:35:15;101251.81;;;-4.81;100.00
31681;BME280;18281;51.364;9.566;2023-01-29T08:37:40;101245.91;;;-4.78;100.00
31681;BME280;18281;51.364;9.566;2023-01-29T08:40:06;101238.38;;;-4.72;100.00
31681;BME280;18281;51.364;9.566;2023-01-29T08:42:33;101222.13;;;-4.73;100.00
31681;BME280;18281;51.364;9.566;2023-01-29T08:44:58;101213.72;;;-4.69;100.00
31681;BME280;18281;51.364;9.566;2023-01-29T08:47:24;101215.22;;;-4.75;100.00
31681;BME280;18281;51.364;9.566;2023-01-29T08:49:49;101212.84;;;-4.69;100.00
31681;BME280;18281;51.364;9.566;2023-01-29T08:52:14;101219.81;;;-4.63;100.00
31681;BME280;18281;51.364;9.566;2023-01-29T08:54:40;101225.16;;;-4.56;100.00
31681;BME280;18281;51.364;9.566;2023-01-29T08:57:05;101210.59;;;-4.57;100.00
31681;BME280;18281;51.364;9.566;2023-01-29T08:59:31;101201.94;;;-4.62;100.00
31681;BME280;18281;51.364;9.566;2023-01-29T09:01:56;101194.31;;;-4.59;100.00
31681;BME280;18281;51.364;9.566;2023-01-29T09:04:21;101197.84;;;-4.54;100.00
31681;BME280;18281;51.364;9.566;2023-01-29T09:06:47;101194.31;;;-4.59;100.00
31681;BME280;18281;51.364;9.566;2023-01-29T09:09:12;101184.19;;;-4.54;100.00
31681;BME280;18281;51.364;9.566;2023-01-29T09:11:38;101179.88;;;-4.55;100.00
31681;BME280;18281;51.364;9.566;2023-01-29T09:14:04;101182.72;;;-4.44;100.00
31681;BME280;18281;51.364;9.566;2023-01-29T09:16:30;101173.16;;;-4.52;100.00
31681;BME280;18281;51.364;9.566;2023-01-29T09:18:55;101183.41;;;-4.52;100.00
31681;BME280;18281;51.364;9.566;2023-01-29T09:21:21;101187.03;;;-4.43;100.00
31681;BME280;18281;51.364;9.566;2023-01-29T09:23:46;101200.66;;;-4.44;100.00
31681;BME280;18281;51.364;9.566;2023-01-29T09:26:11;101198.16;;;-4.41;100.00
31681;BME280;18281;51.364;9.566;2023-01-29T09:28:37;101198.16;;;-4.41;100.00
31681;BME280;18281;51.364;9.566;2023-01-29T09:31:02;101213.66;;;-4.38;100.00
31681;BME280;18281;51.364;9.566;2023-01-29T09:33:28;101214.41;;;-4.42;100.00
31681;BME280;18281;51.364;9.566;2023-01-29T09:35:53;101214.47;;;-4.39;100.00
31681;BME280;18281;51.364;9.566;2023-01-29T09:38:18;101204.38;;;-4.33;100.00
31681;BME280;18281;51.364;9.566;2023-01-29T09:46:10;101191.75;;;-4.24;100.00
31681;BME280;18281;51.364;9.566;2023-01-29T09:48:40;101190.28;;;-4.15;100.00
31681;BME280;18281;51.364;9.566;2023-01-29T09:51:13;101189.09;;;-4.28;100.00
31681;BME280;18281;51.364;9.566;2023-01-29T09:53:55;101200.31;;;-4.25;100.00
31681;BME280;18281;51.364;9.566;2023-01-29T09:56:24;101201.09;;;-4.27;100.00
31681;BME280;18281;51.364;9.566;2023-01-29T09:58:56;101197.47;;;-4.36;100.00
31681;BME280;18281;51.364;9.566;2023-01-29T10:04:33;101192.72;;;-4.20;100.00
31681;BME280;18281;51.364;9.566;2023-01-29T10:21:01;101184.41;;;-4.10;100.00
31681;BME280;18281;51.364;9.566;2023-01-29T10:23:33;101165.44;;;-4.17;100.00
31681;BME280;18281;51.364;9.566;2023-01-29T10:26:00;101157.03;;;-4.11;100.00
31681;BME280;18281;51.364;9.566;2023-01-29T10:28:34;101164.00;;;-4.05;100.00
31681;BME280;18281;51.364;9.566;2023-01-29T10:31:36;101159.03;;;-3.99;100.00
31681;BME280;18281;51.364;9.566;2023-01-29T10:36:40;101141.94;;;-3.97;100.00
31681;BME280;18281;51.364;9.566;2023-01-29T10:39:15;101142.78;;;-4.00;100.00
31681;BME280;18281;51.364;9.566;2023-01-29T10:53:15;101110.13;;;-4.05;100.00
31681;BME280;18281;51.364;9.566;2023-01-29T10:59:47;101116.28;;;-3.97;100.00
31681;BME280;18281;51.364;9.566;2023-01-29T11:01:37;101108.69;;;-3.94;100.00
31681;BME280;18281;51.364;9.566;2023-01-29T11:04:05;101101.81;;;-3.95;100.00
31681;BME280;18281;51.364;9.566;2023-01-29T11:06:35;101097.59;;;-3.93;100.00
31681;BME280;18281;51.364;9.566;2023-01-29T11:11:53;101092.53;;;-3.90;100.00
31681;BME280;18281;51.364;9.566;2023-01-29T11:14:41;101084.88;;;-3.87;100.00
31681;BME280;18281;51.364;9.566;2023-01-29T11:17:16;101086.63;;;-3.86;100.00
31681;BME280;18281;51.364;9.566;2023-01-29T11:19:44;101084.88;;;-3.87;100.00
31681;BME280;18281;51.364;9.566;2023-01-29T11:22:15;101081.53;;;-3.83;100.00
31681;BME280;18281;51.364;9.566;2023-01-29T11:24:41;101076.34;;;-3.86;100.00
31681;BME280;18281;51.364;9.566;2023-01-29T11:29:42;101060.16;;;-3.83;100.00
31681;BME280;18281;51.364;9.566;2023-01-29T11:32:14;101061.00;;;-3.83;100.00
31681;BME280;18281;51.364;9.566;2023-01-29T11:34:56;101057.66;;;-3.78;100.00
31681;BME280;18281;51.364;9.566;2023-01-29T11:37:22;101054.31;;;-3.76;100.00
31681;BME280;18281;51.364;9.566;2023-01-29T11:39:55;101044.06;;;-3.74;100.00
31681;BME280;18281;51.364;9.566;2023-01-29T11:42:21;101037.31;;;-3.71;100.00
31681;BME280;18281;51.364;9.566;2023-01-29T11:44:47;101037.34;;;-3.68;100.00
31681;BME280;18281;51.364;9.566;2023-01-29T11:49:40;101041.66;;;-3.67;100.00
31681;BME280;18281;51.364;9.566;2023-01-29T11:52:09;101039.84;;;-3.72;100.00
31681;BME280;18281;51.364;9.566;2023-01-29T11:54:44;101038.16;;;-3.70;100.00
31681;BME280;18281;51.364;9.566;2023-01-29T11:57:22;101022.84;;;-3.67;100.00
31681;BME280;18281;51.364;9.566;2023-01-29T11:59:49;101020.38;;;-3.61;100.00
31681;BME280;18281;51.364;9.566;2023-01-29T12:02:21;101021.22;;;-3.62;100.00
31681;BME280;18281;51.364;9.566;2023-01-29T12:04:48;101010.69;;;-3.76;100.00
31681;BME280;18281;51.364;9.566;2023-01-29T12:07:16;101002.81;;;-3.84;100.00
31681;BME280;18281;51.364;9.566;2023-01-29T12:09:48;101010.59;;;-3.82;100.00
31681;BME280;18281;51.364;9.566;2023-01-29T12:15:14;100997.19;;;-3.66;100.00
31681;BME280;18281;51.364;9.566;2023-01-29T12:17:44;100998.06;;;-3.65;100.00
31681;BME280;18281;51.364;9.566;2023-01-29T12:20:21;100987.81;;;-3.63;100.00
31681;BME280;18281;51.364;9.566;2023-01-29T12:25:54;100970.88;;;-3.55;100.00
31681;BME280;18281;51.364;9.566;2023-01-29T12:31:10;100956.19;;;-3.62;100.00
31681;BME280;18281;51.364;9.566;2023-01-29T12:33:48;100961.47;;;-3.53;100.00
31681;BME280;18281;51.364;9.566;2023-01-29T12:36:24;100960.50;;;-3.60;100.00
31681;BME280;18281;51.364;9.566;2023-01-29T12:38:51;100943.31;;;-3.66;100.00
31681;BME280;18281;51.364;9.566;2023-01-29T12:41:30;100946.09;;;-3.52;100.00
31681;BME280;18281;51.364;9.566;2023-01-29T12:44:03;100932.56;;;-3.43;100.00
31681;BME280;18281;51.364;9.566;2023-01-29T12:46:36;100928.22;;;-3.47;100.00
31681;BME280;18281;51.364;9.566;2023-01-29T12:49:10;100931.78;;;-3.39;100.00
31681;BME280;18281;51.364;9.566;2023-01-29T12:51:44;100925.81;;;-3.38;100.00
31681;BME280;18281;51.364;9.566;2023-01-29T12:54:20;100929.19;;;-3.40;100.00
31681;BME280;18281;51.364;9.566;2023-01-29T12:56:50;100924.91;;;-3.40;100.00
31681;BME280;18281;51.364;9.566;2023-01-29T12:59:41;100926.66;;;-3.37;100.00
31681;BME280;18281;51.364;9.566;2023-01-29T13:02:26;100914.75;;;-3.34;100.00
31681;BME280;18281;51.364;9.566;2023-01-29T13:05:00;100913.03;;;-3.33;100.00
31681;BME280;18281;51.364;9.566;2023-01-29T13:07:32;100911.38;;;-3.31;100.00
31681;BME280;18281;51.364;9.566;2023-01-29T13:10:09;100908.78;;;-3.33;100.00
31681;BME280;18281;51.364;9.566;2023-01-29T13:12:38;100895.97;;;-3.31;100.00
31681;BME280;18281;51.364;9.566;2023-01-29T13:15:35;100896.84;;;-3.27;100.00
31681;BME280;18281;51.364;9.566;2023-01-29T13:21:00;100879.75;;;-3.28;100.00
31681;BME280;18281;51.364;9.566;2023-01-29T13:23:36;100871.22;;;-3.26;100.00
31681;BME280;18281;51.364;9.566;2023-01-29T13:26:02;100867.00;;;-3.21;100.00
31681;BME280;18281;51.364;9.566;2023-01-29T13:28:30;100870.47;;;-3.19;100.00
31681;BME280;18281;51.364;9.566;2023-01-29T13:34:25;100860.22;;;-3.17;100.00
31681;BME280;18281;51.364;9.566;2023-01-29T13:37:15;100868.84;;;-3.12;100.00
31681;BME280;18281;51.364;9.566;2023-01-29T13:39:51;100865.47;;;-3.09;100.00
31681;BME280;18281;51.364;9.566;2023-01-29T13:45:05;100873.22;;;-3.06;100.00
31681;BME280;18281;51.364;9.566;2023-01-29T13:47:37;100871.44;;;-3.10;100.00
31681;BME280;18281;51.364;9.566;2023-01-29T13:50:09;100871.44;;;-3.10;100.00
31681;BME280;18281;51.364;9.566;2023-01-29T13:52:45;100865.50;;;-3.06;100.00
31681;BME280;18281;51.364;9.566;2023-01-29T14:10:34;100858.78;;;-2.96;100.00
31681;BME280;18281;51.364;9.566;2023-01-29T14:15:36;100844.25;;;-2.96;100.00
31681;BME280;18281;51.364;9.566;2023-01-29T14:20:37;100847.63;;;-2.99;100.00
31681;BME280;18281;51.364;9.566;2023-01-29T14:23:05;100841.69;;;-2.96;100.00
31681;BME280;18281;51.364;9.566;2023-01-29T14:25:36;100836.56;;;-2.93;100.00
31681;BME280;18281;51.364;9.566;2023-01-29T14:28:03;100838.31;;;-2.92;100.00
31681;BME280;18281;51.364;9.566;2023-01-29T14:30:38;100834.03;;;-2.90;100.00
31681;BME280;18281;51.364;9.566;2023-01-29T14:33:21;100840.06;;;-2.89;100.00
31681;BME280;18281;51.364;9.566;2023-01-29T14:35:49;100834.09;;;-2.88;100.00
31681;BME280;18281;51.364;9.566;2023-01-29T14:38:15;100828.94;;;-2.88;100.00
31681;BME280;18281;51.364;9.566;2023-01-29T14:40:42;100830.66;;;-2.87;100.00
31681;BME280;18281;51.364;9.566;2023-01-29T14:43:18;100827.19;;;-2.91;100.00
31681;BME280;18281;51.364;9.566;2023-01-29T14:45:46;100834.09;;;-2.87;100.00
31681;BME280;18281;51.364;9.566;2023-01-29T14:48:35;100825.47;;;-2.90;100.00
31681;BME280;18281;51.364;9.566;2023-01-29T14:51:10;100830.66;;;-2.87;100.00
31681;BME280;18281;51.364;9.566;2023-01-29T14:53:52;100823.81;;;-2.88;100.00
31681;BME280;18281;51.364;9.566;2023-01-29T14:59:16;100829.81;;;-2.86;100.00
31681;BME280;18281;51.364;9.566;2023-01-29T15:01:52;100834.94;;;-2.86;100.00